Terminal Aerodrome Forecast
Issued by NWS

Current Version | Previous Version | Graphics & Text | Print | Product List | Glossary On
Versions: 1 2 3 4 5 6 7 8 9 10 11 12 13 14 15 16 17 18 19 20
000
FTUS41 KPBZ 161100
TAFMGW
TAF
KMGW 161126Z 1612/1712 17005KT P6SM OVC040
     FM161500 15007KT 5SM -SHRA OVC030
     FM161700 20006KT 3SM -SHRA OVC015
     FM162100 24010KT 2SM -SHRA BR OVC015=

USA.gov is the U.S. government's official web portal to all federal, state and local government web resources and services.